Time;durP1;ratioP1;P1;durP2;ratioP2;P2;SDS_P1;SDS_P2;PMS_P1;PMS_P2;Temp;Humidity;BMP_temperature;BMP_pressure;BME280_temperature;BME280_humidity;BME280_pressure;Samples;Min_cycle;Max_cycle;Signal;HPM_P1;HPM_P2
2020/12/16 00:02:05;;;;;;;71.45;37.15;;;5.60;99.90;;;;;;5050375;28;20086;-78
2020/12/16 00:04:32;;;;;;;66.72;34.35;;;5.60;99.90;;;;;;5041704;28;20488;-78
2020/12/16 00:06:59;;;;;;;64.43;34.58;;;5.50;99.90;;;;;;5049927;28;20123;-78
2020/12/16 00:09:26;;;;;;;63.88;34.15;;;5.50;99.90;;;;;;5045457;28;20610;-79
2020/12/16 00:11:52;;;;;;;55.95;33.28;;;5.40;99.90;;;;;;5045056;28;20129;-77
2020/12/16 00:14:18;;;;;;;64.78;33.58;;;5.40;99.90;;;;;;5050252;28;20448;-77
2020/12/16 00:16:44;;;;;;;59.05;33.80;;;5.40;99.90;;;;;;5048764;28;20077;-77
2020/12/16 00:19:11;;;;;;;61.67;33.95;;;5.30;99.90;;;;;;5040634;28;20128;-77
2020/12/16 00:21:37;;;;;;;60.53;33.88;;;5.30;99.90;;;;;;5034361;28;20136;-77
2020/12/16 00:24:03;;;;;;;68.72;36.97;;;5.20;99.90;;;;;;5046362;28;20412;-77
2020/12/16 00:26:33;;;;;;;67.43;36.13;;;5.20;99.90;;;;;;5047965;28;20075;-77
2020/12/16 00:28:59;;;;;;;153.45;49.13;;;5.10;99.90;;;;;;5049850;28;20490;-77
2020/12/16 00:31:26;;;;;;;97.05;44.90;;;5.00;99.90;;;;;;5049840;28;20095;-77
2020/12/16 00:33:53;;;;;;;81.57;41.55;;;5.00;99.90;;;;;;5037016;28;20057;-77
2020/12/16 00:36:19;;;;;;;71.05;37.17;;;5.00;99.90;;;;;;5047136;28;20085;-77
2020/12/16 00:38:46;;;;;;;100.15;38.40;;;4.90;99.90;;;;;;5049431;28;20113;-79
2020/12/16 00:41:13;;;;;;;122.25;39.78;;;4.80;99.90;;;;;;5036011;28;20140;-77
2020/12/16 00:43:39;;;;;;;239.82;39.70;;;4.70;99.90;;;;;;5041482;28;20107;-76
2020/12/16 00:46:06;;;;;;;100.78;35.75;;;4.70;99.90;;;;;;5045068;28;20137;-79
2020/12/16 00:48:32;;;;;;;80.22;34.10;;;4.60;99.90;;;;;;5043387;28;20353;-79
2020/12/16 00:50:59;;;;;;;71.38;35.47;;;4.50;99.90;;;;;;5047677;28;20057;-77
2020/12/16 00:53:25;;;;;;;80.57;41.42;;;4.40;99.90;;;;;;5049214;28;20053;-77
2020/12/16 00:55:51;;;;;;;83.22;45.75;;;4.50;99.90;;;;;;5042854;28;20060;-78
2020/12/16 00:58:18;;;;;;;88.55;49.05;;;4.70;99.90;;;;;;5045803;28;20098;-77
2020/12/16 01:00:44;;;;;;;82.28;46.10;;;5.00;99.90;;;;;;5041752;28;20107;-77
2020/12/16 01:03:10;;;;;;;100.63;51.88;;;5.20;99.90;;;;;;5036701;28;20129;-78
2020/12/16 01:05:36;;;;;;;96.57;50.88;;;5.30;99.90;;;;;;5048115;28;20041;-77
2020/12/16 01:08:03;;;;;;;91.40;49.75;;;5.40;99.90;;;;;;5047922;28;20479;-80
2020/12/16 01:10:30;;;;;;;88.47;47.20;;;5.40;99.90;;;;;;5028973;28;20535;-77
2020/12/16 01:12:56;;;;;;;105.75;52.90;;;5.50;99.90;;;;;;5043632;28;20041;-78
2020/12/16 01:15:23;;;;;;;93.15;50.50;;;5.50;99.90;;;;;;5046951;28;20059;-77
2020/12/16 01:17:50;;;;;;;96.90;52.53;;;5.50;99.90;;;;;;5032838;28;20120;-79
2020/12/16 01:20:17;;;;;;;104.97;52.35;;;5.50;99.90;;;;;;5042787;28;20079;-77
2020/12/16 01:22:45;;;;;;;115.30;55.17;;;5.40;99.90;;;;;;5046909;28;20475;-77
2020/12/16 01:25:12;;;;;;;112.35;55.58;;;5.50;99.90;;;;;;5044425;28;20128;-76
2020/12/16 01:27:38;;;;;;;111.22;54.83;;;5.50;99.90;;;;;;5040747;28;20133;-80
2020/12/16 01:30:07;;;;;;;120.55;56.15;;;5.60;99.90;;;;;;5048628;28;20129;-78
2020/12/16 01:32:36;;;;;;;101.88;51.42;;;5.50;99.90;;;;;;5043517;28;20471;-78
2020/12/16 01:35:06;;;;;;;96.82;49.72;;;5.50;99.90;;;;;;5039453;28;20114;-77
2020/12/16 01:37:34;;;;;;;89.75;46.25;;;5.50;99.90;;;;;;5047209;28;20061;-78
2020/12/16 01:40:02;;;;;;;87.47;43.47;;;5.40;99.90;;;;;;5042067;28;20094;-77
2020/12/16 01:42:29;;;;;;;99.07;47.28;;;5.40;99.90;;;;;;5039477;28;20075;-77
2020/12/16 01:44:55;;;;;;;96.90;46.88;;;5.30;99.90;;;;;;5045894;28;20044;-76
2020/12/16 01:47:22;;;;;;;101.93;49.70;;;5.40;99.90;;;;;;5042900;28;20048;-76
2020/12/16 01:49:48;;;;;;;88.80;45.78;;;5.40;99.90;;;;;;5048138;28;20124;-77
2020/12/16 01:52:19;;;;;;;92.30;47.05;;;5.40;99.90;;;;;;5047315;28;20116;-77
2020/12/16 01:54:46;;;;;;;93.65;48.50;;;5.40;99.90;;;;;;5043019;28;20120;-76
2020/12/16 01:57:17;;;;;;;89.90;47.33;;;5.50;99.90;;;;;;5036490;28;20088;-77
2020/12/16 01:59:46;;;;;;;94.80;46.75;;;5.50;99.90;;;;;;5048144;28;20390;-75
2020/12/16 02:02:14;;;;;;;87.43;45.25;;;5.60;99.90;;;;;;5046894;28;20389;-76
2020/12/16 02:04:43;;;;;;;97.63;48.70;;;5.60;99.90;;;;;;5047868;28;20132;-77
2020/12/16 02:07:11;;;;;;;96.25;48.63;;;5.70;99.90;;;;;;5045539;28;20399;-77
2020/12/16 02:09:48;;;;;;;91.47;46.42;;;5.60;99.90;;;;;;5042231;28;20115;-77
2020/12/16 02:12:17;;;;;;;80.32;42.33;;;5.60;99.90;;;;;;5044679;28;20045;-76
2020/12/16 02:14:44;;;;;;;96.53;47.10;;;5.60;99.90;;;;;;5040043;28;20124;-75
2020/12/16 02:17:11;;;;;;;93.93;44.25;;;5.60;99.90;;;;;;5046753;28;20135;-77
2020/12/16 02:19:40;;;;;;;78.65;41.47;;;5.60;99.90;;;;;;5045005;28;20422;-75
2020/12/16 02:22:08;;;;;;;86.47;43.05;;;5.60;99.90;;;;;;5045789;28;20124;-77
2020/12/16 02:24:39;;;;;;;78.30;42.33;;;5.60;99.90;;;;;;5047544;28;20044;-76
2020/12/16 02:27:06;;;;;;;84.22;42.42;;;5.70;99.90;;;;;;5049131;28;20122;-77
2020/12/16 02:29:33;;;;;;;66.70;38.25;;;5.70;99.90;;;;;;5052536;28;20049;-76
2020/12/16 02:32:00;;;;;;;66.72;39.20;;;5.70;99.90;;;;;;5051770;28;20172;-76
2020/12/16 02:34:26;;;;;;;65.65;37.28;;;5.70;99.90;;;;;;5051444;28;20152;-76
2020/12/16 02:36:53;;;;;;;74.57;38.03;;;5.70;99.90;;;;;;5048286;28;20503;-77
2020/12/16 02:39:19;;;;;;;71.72;38.00;;;5.60;99.90;;;;;;5049326;28;20495;-76
2020/12/16 02:41:45;;;;;;;86.80;43.30;;;5.50;99.90;;;;;;5042023;28;20120;-76
2020/12/16 02:44:12;;;;;;;86.30;41.95;;;5.40;99.90;;;;;;5050895;28;20132;-75
2020/12/16 02:46:38;;;;;;;78.65;41.63;;;5.40;99.90;;;;;;5051721;28;20129;-76
2020/12/16 02:49:05;;;;;;;92.47;44.25;;;5.30;99.90;;;;;;5051022;28;20084;-76
2020/12/16 02:51:32;;;;;;;70.10;39.05;;;5.30;99.90;;;;;;5052402;28;20099;-76
2020/12/16 02:54:00;;;;;;;71.45;40.53;;;5.30;99.90;;;;;;5040572;28;20037;-77
2020/12/16 02:56:27;;;;;;;73.95;40.75;;;5.30;99.90;;;;;;5039578;28;20804;-76
2020/12/16 02:58:53;;;;;;;73.85;40.03;;;5.30;99.90;;;;;;5050883;28;20213;-77
2020/12/16 03:01:20;;;;;;;80.13;41.03;;;5.30;99.90;;;;;;5051593;28;20049;-76
2020/12/16 03:03:46;;;;;;;90.70;42.92;;;5.40;99.90;;;;;;5049229;28;20145;-76
2020/12/16 03:06:14;;;;;;;67.03;39.47;;;5.40;99.90;;;;;;5051087;28;20068;-76
2020/12/16 03:08:40;;;;;;;71.53;40.78;;;5.40;99.90;;;;;;5048214;28;20506;-76
2020/12/16 03:11:06;;;;;;;68.50;38.45;;;5.50;99.90;;;;;;5047110;28;20128;-77
2020/12/16 03:13:34;;;;;;;76.28;40.72;;;5.50;99.90;;;;;;5051649;28;20053;-77
2020/12/16 03:16:00;;;;;;;76.53;45.25;;;5.50;99.90;;;;;;5050303;28;20037;-78
2020/12/16 03:18:28;;;;;;;83.03;45.03;;;5.50;99.90;;;;;;5051445;28;20115;-77
2020/12/16 03:20:55;;;;;;;75.57;39.80;;;5.50;99.90;;;;;;5047822;28;20057;-77
2020/12/16 03:23:22;;;;;;;85.47;41.60;;;5.50;99.90;;;;;;5049288;28;20045;-77
2020/12/16 03:25:48;;;;;;;68.47;39.50;;;5.50;99.90;;;;;;5040639;28;20049;-77
2020/12/16 03:28:14;;;;;;;68.55;37.85;;;5.50;99.90;;;;;;5050120;28;20510;-77
2020/12/16 03:30:41;;;;;;;73.82;39.95;;;5.50;99.90;;;;;;5050940;28;20053;-77
2020/12/16 03:33:07;;;;;;;60.47;36.85;;;5.60;99.90;;;;;;5043783;28;20747;-77
2020/12/16 03:35:33;;;;;;;66.60;37.88;;;5.50;99.90;;;;;;5049534;28;20452;-78
2020/12/16 03:38:00;;;;;;;62.28;36.78;;;5.50;99.90;;;;;;5050559;28;20087;-78
2020/12/16 03:40:26;;;;;;;56.85;34.67;;;5.50;99.90;;;;;;5044177;28;20083;-77
2020/12/16 03:42:53;;;;;;;69.00;37.72;;;5.50;99.90;;;;;;5049809;28;20486;-77
2020/12/16 03:45:19;;;;;;;60.40;35.00;;;5.40;99.90;;;;;;5050268;28;20140;-77
2020/12/16 03:47:45;;;;;;;51.80;32.92;;;5.40;99.90;;;;;;5050577;28;20151;-77
2020/12/16 03:50:12;;;;;;;56.90;31.73;;;5.40;99.90;;;;;;5046527;28;20423;-77
2020/12/16 03:52:38;;;;;;;61.70;33.72;;;5.30;99.90;;;;;;5049407;28;20075;-77
2020/12/16 03:55:04;;;;;;;63.45;34.55;;;5.20;99.90;;;;;;5044287;28;20464;-77
2020/12/16 03:57:33;;;;;;;57.92;33.08;;;5.10;99.90;;;;;;5047640;28;20053;-79
2020/12/16 03:59:59;;;;;;;48.15;29.55;;;5.00;99.90;;;;;;5050314;28;20075;-78
2020/12/16 04:02:26;;;;;;;58.35;33.53;;;5.00;99.90;;;;;;5050493;28;20155;-76
2020/12/16 04:04:52;;;;;;;53.20;31.58;;;4.90;99.90;;;;;;5042716;28;20512;-75
2020/12/16 04:07:18;;;;;;;57.63;32.97;;;4.80;99.90;;;;;;5049961;28;20076;-76
2020/12/16 04:09:45;;;;;;;51.92;31.50;;;4.70;99.90;;;;;;5046839;28;20123;-76
2020/12/16 04:12:11;;;;;;;57.03;31.85;;;4.70;99.90;;;;;;5047837;28;20087;-78
2020/12/16 04:14:37;;;;;;;62.67;31.90;;;4.70;99.90;;;;;;5048659;28;20369;-76
2020/12/16 04:17:04;;;;;;;70.22;33.05;;;4.60;99.90;;;;;;5050115;28;20130;-78
2020/12/16 04:19:31;;;;;;;67.07;31.52;;;4.50;99.90;;;;;;5049129;28;20109;-77
2020/12/16 04:21:57;;;;;;;49.70;28.25;;;4.40;99.90;;;;;;5049971;28;20135;-77
2020/12/16 04:24:23;;;;;;;49.90;27.98;;;4.40;99.90;;;;;;5047032;28;20045;-76
2020/12/16 04:26:51;;;;;;;52.22;28.23;;;4.30;99.90;;;;;;5045217;28;20128;-77
2020/12/16 04:29:18;;;;;;;72.90;35.15;;;4.20;99.90;;;;;;5049703;28;20361;-78
2020/12/16 04:31:50;;;;;;;77.00;37.08;;;4.10;99.90;;;;;;5048634;28;20090;-77
2020/12/16 04:34:17;;;;;;;81.28;39.53;;;4.10;99.90;;;;;;5049292;28;20111;-77
2020/12/16 04:36:49;;;;;;;60.70;34.10;;;4.10;99.90;;;;;;5044595;28;20559;-77
2020/12/16 04:39:17;;;;;;;71.55;37.20;;;4.10;99.90;;;;;;5048773;28;20507;-77
2020/12/16 04:41:44;;;;;;;78.03;36.80;;;4.10;99.90;;;;;;5047693;28;20041;-77
2020/12/16 04:44:12;;;;;;;93.35;36.83;;;4.10;99.90;;;;;;5049447;28;20080;-77
2020/12/16 04:46:41;;;;;;;77.35;33.50;;;4.10;99.90;;;;;;5048879;28;20087;-77
2020/12/16 04:49:09;;;;;;;65.60;29.02;;;4.10;99.90;;;;;;5048348;28;20187;-78
2020/12/16 04:51:41;;;;;;;42.83;23.25;;;4.00;99.90;;;;;;5048865;28;20083;-76
2020/12/16 04:54:07;;;;;;;59.75;25.35;;;4.00;99.90;;;;;;5046067;28;20214;-78
2020/12/16 04:56:36;;;;;;;53.30;23.67;;;4.00;99.90;;;;;;5041464;28;20045;-79
2020/12/16 04:59:04;;;;;;;44.38;22.20;;;4.00;99.90;;;;;;5047318;28;20052;-77
2020/12/16 05:01:42;;;;;;;47.85;22.27;;;3.90;99.90;;;;;;5047775;28;20071;-79
2020/12/16 05:04:10;;;;;;;54.33;21.58;;;3.90;99.90;;;;;;5048920;28;20156;-76
2020/12/16 05:06:42;;;;;;;52.80;21.58;;;3.90;99.90;;;;;;5049081;28;20076;-77
2020/12/16 05:09:17;;;;;;;45.83;19.45;;;3.80;99.90;;;;;;5043017;28;20061;-79
2020/12/16 05:11:51;;;;;;;38.53;19.35;;;3.70;99.90;;;;;;5042445;28;20051;-77
2020/12/16 05:14:22;;;;;;;37.33;18.67;;;3.70;99.90;;;;;;5048270;28;20460;-76
2020/12/16 05:17:00;;;;;;;43.90;19.38;;;3.70;99.90;;;;;;5049027;28;20170;-75
2020/12/16 05:19:34;;;;;;;40.83;20.23;;;3.60;99.90;;;;;;5048280;28;20049;-76
2020/12/16 05:22:19;;;;;;;43.67;21.23;;;3.50;99.90;;;;;;5036072;28;20045;-78
2020/12/16 05:24:51;;;;;;;56.95;23.17;;;3.60;99.90;;;;;;5038991;28;20163;-77
2020/12/16 05:27:32;;;;;;;50.42;24.02;;;3.60;99.90;;;;;;5039018;28;20057;-76
2020/12/16 05:30:11;;;;;;;46.75;23.05;;;3.50;99.90;;;;;;5048004;28;20071;-76
2020/12/16 05:32:38;;;;;;;52.13;23.92;;;3.50;99.90;;;;;;5042734;28;20135;-77
2020/12/16 05:35:22;;;;;;;56.17;21.27;;;3.40;99.90;;;;;;5048621;28;20463;-78
2020/12/16 05:37:49;;;;;;;52.15;22.58;;;3.50;99.90;;;;;;5046607;28;20063;-81
2020/12/16 05:40:28;;;;;;;48.92;22.25;;;3.50;99.90;;;;;;5044828;28;20049;-79
2020/12/16 05:42:55;;;;;;;65.60;20.23;;;3.50;99.90;;;;;;5048371;28;20172;-76
2020/12/16 05:45:25;;;;;;;50.97;20.45;;;3.50;99.90;;;;;;5047883;28;20522;-77
2020/12/16 05:48:07;;;;;;;40.55;19.15;;;3.50;99.90;;;;;;5048323;28;20057;-75
2020/12/16 05:50:50;;;;;;;50.22;20.00;;;3.60;99.90;;;;;;5045276;28;20127;-82
2020/12/16 05:53:24;;;;;;;45.15;18.33;;;3.60;99.90;;;;;;5047011;28;20075;-76
2020/12/16 05:56:02;;;;;;;45.10;19.40;;;3.60;99.90;;;;;;5037502;28;20400;-77
2020/12/16 05:58:31;;;;;;;43.17;18.48;;;3.70;99.90;;;;;;5046854;28;20060;-76
2020/12/16 06:01:03;;;;;;;50.25;20.65;;;3.70;99.90;;;;;;5049560;28;20077;-77
2020/12/16 06:03:34;;;;;;;41.40;18.85;;;3.80;99.90;;;;;;5050058;28;20075;-75
2020/12/16 06:06:08;;;;;;;44.92;19.05;;;3.80;99.90;;;;;;5051015;28;20120;-76
2020/12/16 06:08:44;;;;;;;46.08;20.63;;;3.80;99.90;;;;;;5045051;28;20518;-76
2020/12/16 06:11:12;;;;;;;48.35;20.38;;;3.90;99.90;;;;;;5042106;28;20144;-77
2020/12/16 06:13:44;;;;;;;55.05;21.05;;;3.90;99.90;;;;;;5043978;28;20041;-75
2020/12/16 06:16:10;;;;;;;49.35;22.98;;;3.90;99.90;;;;;;5050099;28;20052;-76
2020/12/16 06:18:39;;;;;;;50.95;22.88;;;3.90;99.90;;;;;;5050828;28;20120;-75
2020/12/16 06:21:07;;;;;;;54.70;23.00;;;3.80;99.90;;;;;;5048951;28;20040;-76
2020/12/16 06:23:38;;;;;;;53.15;23.35;;;3.90;99.90;;;;;;5052300;28;20037;-75
2020/12/16 06:26:16;;;;;;;57.92;24.63;;;3.80;99.90;;;;;;5047417;28;20122;-76
2020/12/16 06:28:45;;;;;;;57.13;23.88;;;3.80;99.90;;;;;;5047153;28;20099;-75
2020/12/16 06:31:20;;;;;;;49.67;21.92;;;3.80;99.90;;;;;;5050946;28;20055;-76
2020/12/16 06:34:06;;;;;;;57.75;23.52;;;3.70;99.90;;;;;;5048767;28;20118;-76
2020/12/16 06:36:34;;;;;;;52.50;23.73;;;3.80;99.90;;;;;;5047598;28;20124;-77
2020/12/16 06:39:02;;;;;;;56.42;22.83;;;3.80;99.90;;;;;;5048279;28;20042;-77
2020/12/16 06:41:33;;;;;;;51.25;21.85;;;3.80;99.90;;;;;;5048384;28;20049;-75
2020/12/16 06:44:10;;;;;;;46.60;22.00;;;3.90;99.90;;;;;;5048566;28;20068;-76
2020/12/16 06:46:42;;;;;;;56.40;24.98;;;3.90;99.90;;;;;;5043606;28;20045;-75
2020/12/16 06:49:29;;;;;;;53.10;25.92;;;3.90;99.90;;;;;;5043861;28;20041;-75
2020/12/16 06:52:07;;;;;;;55.78;25.05;;;4.00;99.90;;;;;;5047690;28;20080;-75
2020/12/16 06:54:41;;;;;;;55.90;28.17;;;4.00;99.90;;;;;;5041136;28;20135;-75
2020/12/16 06:57:13;;;;;;;67.90;30.02;;;4.00;99.90;;;;;;5047681;28;20048;-75
2020/12/16 06:59:45;;;;;;;58.88;28.42;;;4.10;99.90;;;;;;5047425;28;20448;-77
2020/12/16 07:02:15;;;;;;;51.47;26.52;;;4.10;99.90;;;;;;5046764;28;20099;-75
2020/12/16 07:04:42;;;;;;;56.78;25.67;;;4.10;99.90;;;;;;5048326;28;20041;-75
2020/12/16 07:07:42;;;;;;;55.95;23.83;;;4.10;99.90;;;;;;5044938;28;20045;-75
2020/12/16 07:10:33;;;;;;;43.80;19.92;;;4.10;99.90;;;;;;5042162;28;20466;-75
2020/12/16 07:13:14;;;;;;;45.55;21.35;;;4.00;99.90;;;;;;5046286;28;20159;-76
2020/12/16 07:15:48;;;;;;;44.40;20.75;;;4.00;99.90;;;;;;5037469;28;20163;-75
2020/12/16 07:18:28;;;;;;;44.30;20.60;;;4.00;99.90;;;;;;5046419;28;21138;-74
2020/12/16 07:21:19;;;;;;;43.25;18.67;;;4.00;99.90;;;;;;5039800;28;20118;-74
2020/12/16 07:23:59;;;;;;;45.33;19.67;;;3.90;99.90;;;;;;5046908;28;20136;-73
2020/12/16 07:26:53;;;;;;;41.97;19.40;;;3.80;99.90;;;;;;5045336;28;20148;-73
2020/12/16 07:29:34;;;;;;;42.05;20.13;;;3.80;99.90;;;;;;5047068;28;20348;-73
2020/12/16 07:32:02;;;;;;;41.97;21.67;;;3.90;99.90;;;;;;5043643;28;20132;-74
2020/12/16 07:34:31;;;;;;;48.03;22.60;;;3.90;99.90;;;;;;5045626;28;20495;-73
2020/12/16 07:37:01;;;;;;;54.83;23.58;;;4.00;99.90;;;;;;5044931;28;20511;-75
2020/12/16 07:39:32;;;;;;;48.80;22.95;;;4.00;99.90;;;;;;5046870;28;21264;-75
2020/12/16 07:42:03;;;;;;;56.97;23.63;;;4.00;99.90;;;;;;5040896;28;20120;-75
2020/12/16 07:44:42;;;;;;;46.28;22.77;;;4.00;99.90;;;;;;5048136;28;20053;-74
2020/12/16 07:47:15;;;;;;;52.72;22.85;;;4.00;99.90;;;;;;5042262;28;20056;-74
2020/12/16 07:49:45;;;;;;;45.40;22.48;;;4.10;99.90;;;;;;5044313;28;20044;-74
2020/12/16 07:52:26;;;;;;;55.58;27.17;;;4.10;99.90;;;;;;5041156;28;20119;-76
2020/12/16 07:54:58;;;;;;;49.58;22.38;;;4.20;99.90;;;;;;5041828;28;20063;-75
2020/12/16 07:57:35;;;;;;;45.78;22.10;;;4.20;99.90;;;;;;5042882;28;20345;-77
2020/12/16 08:00:06;;;;;;;51.42;23.27;;;4.30;99.90;;;;;;5046249;28;20237;-76
2020/12/16 08:02:36;;;;;;;52.72;27.25;;;4.40;99.90;;;;;;5047322;28;20063;-76
2020/12/16 08:05:03;;;;;;;60.10;26.42;;;4.40;99.90;;;;;;5046631;28;20144;-75
2020/12/16 08:07:32;;;;;;;54.90;27.90;;;4.50;99.90;;;;;;5039846;28;20432;-75
2020/12/16 08:10:08;;;;;;;59.95;29.35;;;4.50;99.90;;;;;;5042927;28;20164;-74
2020/12/16 08:12:42;;;;;;;62.50;27.00;;;4.60;99.90;;;;;;5042352;28;20048;-73
2020/12/16 08:15:19;;;;;;;63.20;29.23;;;4.70;99.90;;;;;;5042815;28;20049;-73
2020/12/16 08:17:53;;;;;;;69.32;27.73;;;4.80;99.90;;;;;;5043846;28;20084;-72
2020/12/16 08:20:26;;;;;;;54.60;25.48;;;4.90;99.90;;;;;;5041735;28;20056;-73
2020/12/16 08:23:05;;;;;;;65.53;25.55;;;5.00;99.90;;;;;;5046559;28;20411;-73
2020/12/16 08:25:42;;;;;;;53.88;25.67;;;5.10;99.90;;;;;;5043186;28;20049;-73
2020/12/16 08:28:09;;;;;;;56.00;25.23;;;5.20;99.90;;;;;;5040797;28;20041;-74
2020/12/16 08:30:38;;;;;;;52.78;25.33;;;5.20;99.90;;;;;;5045028;28;20461;-74
2020/12/16 08:33:19;;;;;;;55.13;25.83;;;5.20;99.90;;;;;;5046809;28;20119;-73
2020/12/16 08:36:04;;;;;;;54.42;26.13;;;5.20;99.90;;;;;;5041721;28;20057;-73
2020/12/16 08:38:38;;;;;;;53.00;25.98;;;5.20;99.90;;;;;;5039131;28;20053;-73
2020/12/16 08:41:07;;;;;;;64.80;29.30;;;5.40;99.90;;;;;;5045754;28;20064;-74
2020/12/16 08:43:43;;;;;;;58.35;29.88;;;5.50;99.90;;;;;;5045114;28;20172;-73
2020/12/16 08:46:23;;;;;;;61.83;29.23;;;5.70;99.90;;;;;;5036805;28;20128;-74
2020/12/16 08:49:13;;;;;;;50.83;26.15;;;5.90;99.90;;;;;;5041354;28;20063;-74
2020/12/16 08:51:44;;;;;;;43.97;23.15;;;6.00;99.90;;;;;;5045754;28;20053;-74
2020/12/16 08:54:16;;;;;;;45.75;23.20;;;6.00;99.90;;;;;;5044584;28;20051;-73
2020/12/16 08:56:52;;;;;;;;;;;6.10;99.90;;;;;;5043088;28;20049;-73
2020/12/16 08:59:22;;;;;;;33.13;19.70;;;6.10;99.90;;;;;;5043310;28;19928;-73
2020/12/16 09:01:55;;;;;;;28.10;16.75;;;5.90;99.90;;;;;;5046252;28;20049;-73
2020/12/16 09:04:36;;;;;;;32.65;19.83;;;5.90;99.90;;;;;;5043222;28;20453;-74
2020/12/16 09:07:14;;;;;;;26.23;16.20;;;6.20;99.90;;;;;;5042274;28;20133;-74
2020/12/16 09:09:51;;;;;;;32.13;19.63;;;6.80;99.90;;;;;;5038572;28;20071;-74
2020/12/16 09:12:25;;;;;;;23.75;16.77;;;7.10;99.90;;;;;;5041787;28;20123;-74
2020/12/16 09:15:02;;;;;;;18.80;13.50;;;7.40;99.90;;;;;;5042597;28;20600;-73
2020/12/16 09:17:33;;;;;;;18.48;12.77;;;7.50;99.90;;;;;;5037499;28;20041;-73
2020/12/16 09:20:19;;;;;;;16.42;11.52;;;7.30;99.90;;;;;;5045143;28;20067;-74
2020/12/16 09:22:58;;;;;;;17.65;12.05;;;7.30;99.90;;;;;;5043074;28;20043;-73
2020/12/16 09:25:32;;;;;;;12.52;9.57;;;7.30;99.90;;;;;;5038361;28;20056;-73
2020/12/16 09:28:01;;;;;;;11.52;9.40;;;7.50;99.90;;;;;;5043731;28;20378;-74
2020/12/16 09:30:36;;;;;;;13.70;9.77;;;7.70;99.90;;;;;;5039365;28;20415;-73
2020/12/16 09:33:15;;;;;;;9.60;7.40;;;8.50;99.90;;;;;;5059498;28;20037;-77
2020/12/16 09:35:52;;;;;;;7.35;5.70;;;9.90;99.90;;;;;;5038095;28;20445;-74
2020/12/16 09:38:25;;;;;;;6.93;5.80;;;11.30;99.90;;;;;;5045506;28;20045;-74
2020/12/16 09:41:01;;;;;;;6.03;5.00;;;12.50;99.90;;;;;;5037746;28;20484;-75
2020/12/16 09:44:00;;;;;;;5.65;4.70;;;13.80;99.90;;;;;;5042488;28;20345;-74
2020/12/16 09:46:35;;;;;;;4.78;4.18;;;14.50;99.90;;;;;;5037297;28;20384;-73
2020/12/16 09:49:11;;;;;;;6.97;4.32;;;14.90;98.30;;;;;;5043750;28;20053;-75
2020/12/16 09:51:42;;;;;;;;;;;14.60;99.90;;;;;;5046666;28;20114;-73
2020/12/16 09:54:10;;;;;;;5.43;4.40;;;14.90;99.10;;;;;;5045716;28;19929;-75
2020/12/16 09:56:41;;;;;;;4.13;3.50;;;15.00;95.60;;;;;;5041873;28;20049;-74
2020/12/16 09:59:21;;;;;;;4.50;4.10;;;15.70;98.40;;;;;;5041599;28;20056;-73
2020/12/16 10:01:50;;;;;;;5.35;3.83;;;15.60;93.20;;;;;;5041487;28;20048;-74
2020/12/16 10:04:31;;;;;;;5.55;3.40;;;16.30;92.80;;;;;;5039271;28;20486;-74
2020/12/16 10:07:09;;;;;;;3.63;3.10;;;16.90;92.30;;;;;;5045783;28;20047;-74
2020/12/16 10:09:58;;;;;;;5.13;3.33;;;16.60;89.40;;;;;;5042042;28;20122;-75
2020/12/16 10:12:42;;;;;;;;;;;16.90;83.10;;;;;;5040193;28;20048;-74
2020/12/16 10:15:14;;;;;;;4.40;3.13;;;17.30;80.20;;;;;;5043579;28;20003;-74
2020/12/16 10:17:54;;;;;;;4.05;3.45;;;16.40;85.30;;;;;;5038458;28;20064;-74
2020/12/16 10:20:30;;;;;;;5.68;3.55;;;16.80;85.50;;;;;;5041658;28;20410;-73
2020/12/16 10:23:12;;;;;;;5.15;3.75;;;17.00;86.50;;;;;;5043680;28;20448;-74
2020/12/16 10:25:54;;;;;;;6.45;4.40;;;16.70;85.30;;;;;;5037237;28;20064;-74
2020/12/16 10:28:41;;;;;;;4.82;4.30;;;16.60;85.10;;;;;;5045547;28;20049;-75
2020/12/16 10:31:27;;;;;;;5.78;4.28;;;16.50;85.70;;;;;;5041732;28;20130;-75
2020/12/16 10:34:00;;;;;;;8.15;4.47;;;17.10;85.50;;;;;;5043028;28;20051;-75
2020/12/16 10:36:30;;;;;;;5.10;4.47;;;17.00;81.60;;;;;;5044085;28;20056;-73
2020/12/16 10:39:06;;;;;;;5.55;4.80;;;16.60;83.40;;;;;;5032602;28;20057;-78
2020/12/16 10:41:37;;;;;;;5.07;4.40;;;16.60;89.10;;;;;;5042371;28;20065;-76
2020/12/16 10:44:10;;;;;;;5.82;4.53;;;16.20;87.50;;;;;;5042064;28;20044;-76
2020/12/16 10:46:37;;;;;;;5.95;4.38;;;16.00;89.60;;;;;;5042755;28;20068;-75
2020/12/16 10:49:07;;;;;;;4.82;3.90;;;16.20;87.30;;;;;;5045083;28;20048;-76
2020/12/16 10:51:43;;;;;;;7.07;4.43;;;16.10;89.50;;;;;;5047611;28;20734;-75
2020/12/16 10:54:11;;;;;;;;;;;16.00;90.40;;;;;;5046840;28;20045;-77
2020/12/16 10:56:42;;;;;;;5.43;4.28;;;16.30;90.90;;;;;;5043540;28;20410;-76
2020/12/16 10:59:22;;;;;;;5.03;4.45;;;16.70;86.50;;;;;;5045339;28;20088;-82
2020/12/16 11:01:49;;;;;;;8.27;6.13;;;16.60;85.30;;;;;;5043148;28;20052;-79
2020/12/16 11:04:23;;;;;;;12.07;7.72;;;16.80;84.50;;;;;;5047404;28;20391;-77
2020/12/16 11:06:50;;;;;;;6.63;4.50;;;17.20;84.80;;;;;;5047770;28;20041;-77
2020/12/16 11:09:19;;;;;;;7.85;5.18;;;17.40;78.20;;;;;;5046158;28;20061;-79
2020/12/16 11:11:47;;;;;;;7.00;4.40;;;17.80;77.80;;;;;;5045264;28;20073;-78
2020/12/16 11:14:15;;;;;;;5.03;4.00;;;18.20;77.00;;;;;;5045050;28;20943;-78
2020/12/16 11:16:42;;;;;;;5.35;3.90;;;18.60;72.00;;;;;;5048222;28;20403;-79
2020/12/16 11:19:10;;;;;;;5.63;4.40;;;18.50;72.40;;;;;;5043807;28;20037;-77
2020/12/16 11:21:45;;;;;;;5.28;4.32;;;18.20;74.10;;;;;;5044596;28;20049;-78
2020/12/16 11:24:13;;;;;;;6.50;4.40;;;18.30;73.50;;;;;;5046058;28;20084;-79
2020/12/16 11:26:46;;;;;;;6.35;4.70;;;18.60;72.50;;;;;;5042919;28;20526;-77
2020/12/16 11:29:15;;;;;;;5.25;4.68;;;18.80;68.90;;;;;;5046224;28;20041;-77
2020/12/16 11:31:47;;;;;;;5.28;4.18;;;18.20;74.00;;;;;;5046828;28;20095;-75
2020/12/16 11:34:19;;;;;;;4.70;3.95;;;18.30;72.50;;;;;;5047675;28;20569;-75
2020/12/16 11:36:48;;;;;;;4.63;4.05;;;19.70;70.60;;;;;;5044531;28;20056;-75
2020/12/16 11:39:16;;;;;;;5.88;3.92;;;19.60;67.50;;;;;;5042761;28;20079;-76
2020/12/16 11:41:48;;;;;;;5.90;4.32;;;19.50;65.10;;;;;;5044905;28;20111;-75
2020/12/16 11:44:16;;;;;;;4.90;4.20;;;19.20;65.50;;;;;;5045937;28;20126;-77
2020/12/16 11:46:43;;;;;;;4.57;4.03;;;18.70;66.40;;;;;;5045070;28;20065;-74
2020/12/16 11:49:20;;;;;;;4.70;3.88;;;19.00;66.80;;;;;;5046172;28;20115;-74
2020/12/16 11:51:46;;;;;;;5.47;4.60;;;18.60;66.60;;;;;;5046001;28;20045;-75
2020/12/16 11:54:13;;;;;;;5.85;4.05;;;17.70;70.90;;;;;;5041985;28;20048;-75
2020/12/16 11:56:39;;;;;;;5.15;4.38;;;17.30;73.60;;;;;;5043737;28;20056;-75
2020/12/16 11:59:22;;;;;;;;;;;17.40;76.90;;;;;;5047605;28;20475;-74
2020/12/16 12:01:52;;;;;;;6.07;4.47;;;18.30;71.80;;;;;;5045338;28;19995;-75
2020/12/16 12:04:19;;;;;;;5.72;3.80;;;19.10;69.00;;;;;;5040077;28;20737;-74
2020/12/16 12:06:45;;;;;;;5.55;3.55;;;20.00;64.80;;;;;;5047419;28;20421;-75
2020/12/16 12:09:11;;;;;;;4.18;3.17;;;20.60;60.60;;;;;;5044205;28;20734;-76
2020/12/16 12:11:38;;;;;;;3.80;2.92;;;20.70;61.40;;;;;;5044468;28;20136;-79
2020/12/16 12:14:06;;;;;;;4.57;3.65;;;20.80;61.50;;;;;;5045061;28;20099;-77
2020/12/16 12:16:33;;;;;;;4.20;2.88;;;21.10;59.60;;;;;;5042543;28;20114;-75
2020/12/16 12:19:00;;;;;;;3.70;2.70;;;20.70;61.90;;;;;;5047659;28;20037;-76
2020/12/16 12:21:26;;;;;;;3.90;2.80;;;20.50;58.50;;;;;;5047388;28;20124;-75
2020/12/16 12:23:53;;;;;;;3.10;2.80;;;20.80;58.10;;;;;;5043321;28;20077;-77
2020/12/16 12:26:19;;;;;;;5.65;3.15;;;20.20;58.50;;;;;;5043207;28;20049;-76
2020/12/16 12:28:46;;;;;;;3.97;2.90;;;20.00;61.30;;;;;;5046922;28;20049;-77
2020/12/16 12:31:13;;;;;;;3.88;2.97;;;19.70;60.80;;;;;;5047777;28;20051;-75
2020/12/16 12:33:39;;;;;;;4.55;3.53;;;19.80;61.40;;;;;;5045103;28;20098;-76
2020/12/16 12:36:07;;;;;;;5.55;4.18;;;19.70;61.90;;;;;;5043756;28;20044;-77
2020/12/16 12:38:41;;;;;;;5.28;3.15;;;19.90;61.40;;;;;;5043404;28;20041;-76
2020/12/16 12:41:17;;;;;;;4.70;3.83;;;19.90;61.10;;;;;;5044216;28;20055;-76
2020/12/16 12:43:50;;;;;;;4.10;3.38;;;19.90;60.60;;;;;;5044425;28;20045;-76
2020/12/16 12:46:19;;;;;;;3.72;3.28;;;19.70;61.20;;;;;;5040352;28;20045;-77
2020/12/16 12:48:54;;;;;;;4.30;3.38;;;19.60;62.00;;;;;;5044267;28;20071;-75
2020/12/16 12:51:28;;;;;;;4.00;3.17;;;19.20;63.10;;;;;;5042632;28;20052;-76
2020/12/16 12:54:07;;;;;;;5.40;3.25;;;19.00;64.60;;;;;;5042079;28;20049;-78
2020/12/16 12:56:45;;;;;;;3.60;3.08;;;19.70;64.60;;;;;;5043497;28;20048;-77
2020/12/16 12:59:23;;;;;;;3.72;3.28;;;19.90;61.60;;;;;;5048509;28;20791;-76
2020/12/16 13:02:02;;;;;;;3.60;2.90;;;19.90;60.30;;;;;;5045031;28;20045;-77